Time;durP1;ratioP1;P1;durP2;ratioP2;P2;SDS_P1;SDS_P2;PMS_P1;PMS_P2;Temp;Humidity;BMP_temperature;BMP_pressure;BME280_temperature;BME280_humidity;BME280_pressure;Samples;Min_cycle;Max_cycle;Signal;HPM_P1;HPM_P2
2023/04/09 00:00:41;;;;;;;34.88;20.83;;;;;;;8.65;90.11;102679.41;6187186;23;20022;-80
2023/04/09 00:03:07;;;;;;;40.13;21.60;;;;;;;8.65;90.18;102679.41;6188915;23;20484;-80
2023/04/09 00:05:39;;;;;;;35.35;20.85;;;;;;;8.66;89.90;102672.97;6188056;23;20014;-80
2023/04/09 00:08:06;;;;;;;36.95;21.45;;;;;;;8.65;90.13;102674.88;6188829;23;20045;-81
2023/04/09 00:10:32;;;;;;;38.65;20.63;;;;;;;8.67;90.08;102680.56;6189558;23;20493;-80
2023/04/09 00:12:59;;;;;;;36.95;20.45;;;;;;;8.66;89.83;102673.72;6188498;23;20530;-80
2023/04/09 00:15:25;;;;;;;38.13;20.67;;;;;;;8.65;89.93;102674.09;6187817;23;20084;-80
2023/04/09 00:17:57;;;;;;;39.17;20.73;;;;;;;8.64;89.87;102680.56;6188707;23;20485;-80
2023/04/09 00:20:24;;;;;;;35.13;20.70;;;;;;;8.63;90.27;102676.38;6189496;23;20459;-80
2023/04/09 00:22:51;;;;;;;35.75;21.15;;;;;;;8.65;90.00;102679.41;6189356;23;20024;-80
2023/04/09 00:25:18;;;;;;;37.92;20.98;;;;;;;8.65;90.06;102674.88;6186222;23;20018;-81
2023/04/09 00:27:45;;;;;;;40.30;20.65;;;;;;;8.65;90.06;102669.56;6189107;23;20017;-81
2023/04/09 00:30:12;;;;;;;36.50;21.27;;;;;;;8.65;90.14;102669.56;6186351;23;20018;-80
2023/04/09 00:32:38;;;;;;;36.92;20.85;;;;;;;8.65;90.17;102674.09;6187593;23;20305;-80
2023/04/09 00:35:05;;;;;;;36.88;22.00;;;;;;;8.65;89.93;102668.81;6186761;23;20433;-80
2023/04/09 00:37:32;;;;;;;37.17;21.05;;;;;;;8.63;90.11;102663.88;6191255;23;20024;-80
2023/04/09 00:39:59;;;;;;;38.88;21.70;;;;;;;8.62;90.28;102664.25;6187041;23;20024;-80
2023/04/09 00:42:26;;;;;;;39.45;21.02;;;;;;;8.64;89.89;102659.31;6162077;23;20021;-80
2023/04/09 00:44:52;;;;;;;42.97;21.58;;;;;;;8.65;90.23;102672.22;6188321;23;20013;-80
2023/04/09 00:47:19;;;;;;;38.00;21.25;;;;;;;8.67;90.32;102661.22;6212087;23;20028;-80
2023/04/09 00:49:46;;;;;;;42.45;22.45;;;;;;;8.66;90.23;102655.16;6189063;23;20077;-81
2023/04/09 00:52:12;;;;;;;36.60;21.17;;;;;;;8.64;90.34;102652.13;6188494;23;20069;-81
2023/04/09 00:54:39;;;;;;;33.65;20.30;;;;;;;8.63;90.39;102655.91;6189900;23;20018;-80
2023/04/09 00:57:06;;;;;;;35.75;21.00;;;;;;;8.63;90.24;102655.16;6188423;23;20400;-81
2023/04/09 00:59:32;;;;;;;35.80;20.75;;;;;;;8.61;90.21;102649.44;6188512;23;20021;-80
2023/04/09 01:01:59;;;;;;;37.35;22.25;;;;;;;8.61;90.50;102647.56;6188228;23;20018;-80
2023/04/09 01:04:26;;;;;;;40.08;21.85;;;;;;;8.61;90.37;102650.22;6188955;23;20024;-81
2023/04/09 01:07:13;;;;;;;36.05;21.88;;;;;;;8.62;90.22;102649.06;6162150;23;20025;-81
2023/04/09 01:09:50;;;;;;;32.92;20.30;;;;;;;8.64;90.35;102649.47;6190368;23;20080;-80
2023/04/09 01:12:30;;;;;;;34.42;20.48;;;;;;;8.62;90.42;102645.66;6188736;23;20508;-80
2023/04/09 01:15:07;;;;;;;34.45;20.90;;;;;;;8.61;90.36;102638.84;6185945;23;20093;-80
2023/04/09 01:17:45;;;;;;;36.40;20.80;;;;;;;8.60;90.44;102639.97;6187377;23;20017;-81
2023/04/09 01:20:29;;;;;;;38.95;21.35;;;;;;;8.62;90.54;102645.66;6186485;23;20479;-81
2023/04/09 01:23:18;;;;;;;32.67;19.95;;;;;;;8.61;90.24;102642.25;6188196;23;20522;-81
2023/04/09 01:26:24;;;;;;;34.20;19.88;;;;;;;8.61;90.22;102638.84;6163589;23;20044;-80
2023/04/09 01:28:56;;;;;;;35.38;20.40;;;;;;;8.61;90.43;102641.50;6164342;23;20094;-81
2023/04/09 01:31:28;;;;;;;35.55;19.83;;;;;;;8.61;90.34;102642.25;6187018;23;20018;-80
2023/04/09 01:33:56;;;;;;;40.22;20.92;;;;;;;8.61;90.42;102639.59;6186581;23;20049;-80
2023/04/09 01:36:24;;;;;;;37.58;20.27;;;;;;;8.59;90.46;102631.25;6188733;23;20444;-81
2023/04/09 01:38:52;;;;;;;31.08;19.48;;;;;;;8.58;90.39;102631.63;6188339;23;20475;-80
2023/04/09 01:41:21;;;;;;;32.65;20.08;;;;;;;8.58;90.45;102629.72;6187565;23;20101;-81
2023/04/09 01:43:49;;;;;;;35.22;20.90;;;;;;;8.59;90.59;102630.50;6186032;23;20013;-80
2023/04/09 01:46:17;;;;;;;36.58;20.70;;;;;;;8.59;90.41;102630.50;6186333;23;20025;-80
2023/04/09 01:48:45;;;;;;;33.35;19.98;;;;;;;8.60;90.73;102632.00;6189637;23;20013;-80
2023/04/09 01:51:14;;;;;;;37.80;20.90;;;;;;;8.59;90.88;102628.59;6189237;23;20018;-81
2023/04/09 01:53:41;;;;;;;40.40;21.63;;;;;;;8.60;90.84;102637.31;6189983;23;20013;-80
2023/04/09 01:56:08;;;;;;;39.30;21.45;;;;;;;8.59;90.85;102625.94;6189737;23;20025;-81
2023/04/09 01:58:35;;;;;;;36.63;19.75;;;;;;;8.63;90.55;102623.28;6187789;23;20424;-80
2023/04/09 02:01:08;;;;;;;40.17;22.67;;;;;;;8.61;90.73;102625.56;6187413;23;20022;-80
2023/04/09 02:03:43;;;;;;;37.17;21.55;;;;;;;8.60;90.94;102626.69;6190023;23;20044;-81
2023/04/09 02:06:28;;;;;;;37.20;22.02;;;;;;;8.62;90.58;102621.78;6187580;23;20017;-80
2023/04/09 02:08:59;;;;;;;37.45;20.33;;;;;;;8.61;90.89;102623.66;6187824;23;20080;-81
2023/04/09 02:11:28;;;;;;;37.97;20.92;;;;;;;8.62;90.86;102619.88;6190523;23;20025;-81
2023/04/09 02:13:55;;;;;;;37.28;19.98;;;;;;;8.62;90.85;102624.41;6189684;23;20041;-81
2023/04/09 02:16:24;;;;;;;36.47;21.30;;;;;;;8.63;90.97;102615.31;6189678;23;20021;-80
2023/04/09 02:18:55;;;;;;;37.08;20.92;;;;;;;8.61;90.82;102615.69;6189675;23;20010;-80
2023/04/09 02:21:23;;;;;;;36.70;20.98;;;;;;;8.61;90.81;102614.94;6189858;23;20036;-80
2023/04/09 02:23:49;;;;;;;37.97;21.77;;;;;;;8.61;90.92;102609.63;6188073;23;20017;-80
2023/04/09 02:26:16;;;;;;;35.72;22.02;;;;;;;8.63;90.99;102612.66;6188090;23;20022;-80
2023/04/09 02:28:43;;;;;;;36.30;22.35;;;;;;;8.63;91.43;102607.34;6189746;23;20427;-80
2023/04/09 02:31:10;;;;;;;40.83;22.20;;;;;;;8.62;90.58;102605.84;6189109;23;20022;-80
2023/04/09 02:33:36;;;;;;;38.20;21.08;;;;;;;8.62;90.95;102603.94;6188123;23;20014;-80
2023/04/09 02:36:04;;;;;;;38.95;21.77;;;;;;;8.63;90.92;102613.41;6187538;23;20105;-80
2023/04/09 02:38:31;;;;;;;43.17;22.48;;;;;;;8.61;90.85;102610.38;6188143;23;20072;-80
2023/04/09 02:40:58;;;;;;;36.72;22.27;;;;;;;8.60;91.08;102600.16;6189367;23;20041;-80
2023/04/09 02:43:24;;;;;;;39.17;21.58;;;;;;;8.60;90.91;102600.91;6189540;23;20029;-80
2023/04/09 02:45:50;;;;;;;33.75;21.58;;;;;;;8.60;90.12;102603.56;6188128;23;20017;-80
2023/04/09 02:48:18;;;;;;;36.63;22.30;;;;;;;8.59;90.89;102604.69;6189351;23;20514;-80
2023/04/09 02:50:45;;;;;;;37.55;22.65;;;;;;;8.60;91.01;102602.81;6187988;23;20097;-80
2023/04/09 02:53:11;;;;;;;34.95;21.23;;;;;;;8.61;91.09;102604.31;6186942;23;20017;-80
2023/04/09 02:55:38;;;;;;;36.95;21.65;;;;;;;8.61;90.84;102593.69;6189227;23;20036;-80
2023/04/09 02:58:04;;;;;;;38.40;21.83;;;;;;;8.59;90.77;102601.28;6189726;23;20084;-80
2023/04/09 03:00:31;;;;;;;41.92;22.10;;;;;;;8.59;90.97;102590.66;6187071;23;20032;-80
2023/04/09 03:02:57;;;;;;;33.15;21.05;;;;;;;8.59;90.42;102593.31;6187182;23;20026;-80
2023/04/09 03:05:24;;;;;;;38.38;21.48;;;;;;;8.59;91.01;102590.66;6187928;23;20060;-80
2023/04/09 03:07:52;;;;;;;37.50;21.98;;;;;;;8.59;90.79;102588.78;6189458;23;20489;-80
2023/04/09 03:10:19;;;;;;;37.40;21.98;;;;;;;8.60;90.73;102590.28;6188971;23;20017;-81
2023/04/09 03:12:46;;;;;;;37.88;21.80;;;;;;;8.62;90.81;102592.56;6189958;23;20013;-80
2023/04/09 03:15:13;;;;;;;36.20;22.35;;;;;;;8.60;90.81;102592.19;6187196;23;20017;-80
2023/04/09 03:17:39;;;;;;;34.28;21.48;;;;;;;8.61;90.92;102591.03;6212784;23;20048;-81
2023/04/09 03:20:07;;;;;;;38.30;21.85;;;;;;;8.61;90.84;102588.38;6188551;23;20018;-81
2023/04/09 03:22:37;;;;;;;39.10;21.05;;;;;;;8.61;90.94;102591.81;6187552;23;20064;-80
2023/04/09 03:25:11;;;;;;;37.90;22.23;;;;;;;8.59;90.85;102591.44;6186726;23;20029;-80
2023/04/09 03:27:37;;;;;;;37.25;20.35;;;;;;;8.59;90.83;102585.34;6187710;23;20431;-80
2023/04/09 03:30:05;;;;;;;37.22;21.33;;;;;;;8.60;91.05;102584.22;6188972;23;20021;-80
2023/04/09 03:32:38;;;;;;;32.92;21.27;;;;;;;8.60;90.94;102584.22;6187745;23;20018;-80
2023/04/09 03:35:06;;;;;;;37.15;20.88;;;;;;;8.59;90.90;102578.16;6187035;23;20080;-80
2023/04/09 03:37:32;;;;;;;33.20;20.58;;;;;;;8.57;90.90;102575.13;6187776;23;20053;-81
2023/04/09 03:40:05;;;;;;;31.17;20.27;;;;;;;8.58;90.65;102581.19;6186478;23;20025;-80
2023/04/09 03:42:33;;;;;;;35.53;21.50;;;;;;;8.58;90.29;102573.22;6187422;23;20036;-80
2023/04/09 03:45:03;;;;;;;37.28;21.35;;;;;;;8.57;90.86;102577.00;6190788;23;20056;-80
2023/04/09 03:47:35;;;;;;;37.92;20.48;;;;;;;8.58;90.96;102571.31;6188052;23;20018;-80
2023/04/09 03:50:02;;;;;;;33.63;20.15;;;;;;;8.56;90.82;102573.59;6187261;23;20391;-80
2023/04/09 03:52:41;;;;;;;34.88;21.25;;;;;;;8.57;90.80;102571.69;6187104;23;20084;-80
2023/04/09 03:55:08;;;;;;;31.02;20.27;;;;;;;8.57;91.04;102574.38;6187167;23;20028;-81
2023/04/09 03:57:35;;;;;;;33.28;19.80;;;;;;;8.56;90.72;102565.63;6189605;23;20486;-80
2023/04/09 04:00:07;;;;;;;35.97;21.00;;;;;;;8.57;91.03;102566.41;6189464;23;20021;-81
2023/04/09 04:02:48;;;;;;;32.00;20.55;;;;;;;8.58;90.96;102568.66;6189496;23;20029;-80
2023/04/09 04:05:24;;;;;;;33.70;20.30;;;;;;;8.59;91.16;102566.78;6187476;23;20463;-80
2023/04/09 04:07:52;;;;;;;37.58;20.70;;;;;;;8.58;91.06;102568.66;6186857;23;20014;-81
2023/04/09 04:10:25;;;;;;;31.85;19.95;;;;;;;8.57;90.87;102566.41;6187353;23;20021;-80
2023/04/09 04:12:52;;;;;;;34.45;19.88;;;;;;;8.58;90.95;102570.56;6189186;23;20073;-80
2023/04/09 04:15:44;;;;;;;29.70;18.90;;;;;;;8.57;90.92;102563.75;6189850;23;20013;-80
2023/04/09 04:18:12;;;;;;;37.97;19.52;;;;;;;8.57;90.84;102566.41;6186606;23;20024;-80
2023/04/09 04:20:43;;;;;;;32.63;20.00;;;;;;;8.56;90.96;102570.94;6187556;23;20021;-80
2023/04/09 04:23:12;;;;;;;36.47;19.05;;;;;;;8.56;91.22;102564.88;6187867;23;20052;-80
2023/04/09 04:25:47;;;;;;;31.60;19.52;;;;;;;8.53;91.59;102558.44;6187295;23;20016;-81
2023/04/09 04:28:21;;;;;;;34.95;20.48;;;;;;;8.54;91.36;102556.53;6187252;23;20021;-80
2023/04/09 04:30:48;;;;;;;35.53;20.50;;;;;;;8.56;91.42;102556.91;6187352;23;20026;-80
2023/04/09 04:33:14;;;;;;;33.38;20.67;;;;;;;8.54;91.01;102551.22;6189892;23;20014;-81
2023/04/09 04:35:46;;;;;;;34.78;20.65;;;;;;;8.54;91.24;102554.66;6187386;23;20363;-80
2023/04/09 04:38:29;;;;;;;32.85;20.17;;;;;;;8.53;90.84;102557.69;6187726;23;20113;-80
2023/04/09 04:40:59;;;;;;;33.85;19.35;;;;;;;8.51;90.80;102552.00;6186652;23;20029;-80
2023/04/09 04:43:26;;;;;;;30.95;19.40;;;;;;;8.50;90.94;102559.19;6186783;23;20475;-80
2023/04/09 04:45:56;;;;;;;28.70;19.27;;;;;;;8.51;90.97;102560.72;6186551;23;20105;-80
2023/04/09 04:48:27;;;;;;;32.47;20.35;;;;;;;8.51;91.26;102562.59;6162927;23;20028;-81
2023/04/09 04:50:56;;;;;;;33.90;19.83;;;;;;;8.52;90.95;102556.91;6190042;23;20134;-81
2023/04/09 04:53:26;;;;;;;34.50;19.40;;;;;;;8.51;90.75;102565.25;6187546;23;20053;-80
2023/04/09 04:55:54;;;;;;;32.40;20.63;;;;;;;8.49;90.75;102560.34;6186805;23;20021;-81
2023/04/09 04:58:24;;;;;;;33.13;19.95;;;;;;;8.49;90.65;102549.72;6187131;23;20020;-80
2023/04/09 05:00:55;;;;;;;35.85;20.15;;;;;;;8.48;90.54;102556.16;6211748;23;20018;-81
2023/04/09 05:03:22;;;;;;;31.40;20.17;;;;;;;8.48;90.49;102552.75;6162310;23;20025;-80
2023/04/09 05:05:57;;;;;;;34.05;19.52;;;;;;;8.48;90.48;102553.50;6211147;23;20019;-80
2023/04/09 05:08:27;;;;;;;33.20;19.85;;;;;;;8.48;90.47;102550.09;6190347;23;20021;-80
2023/04/09 05:10:55;;;;;;;33.25;19.65;;;;;;;8.48;90.14;102552.75;6186427;23;20034;-80
2023/04/09 05:13:29;;;;;;;30.88;19.85;;;;;;;8.48;90.33;102550.84;6187269;23;20093;-80
2023/04/09 05:15:56;;;;;;;31.27;20.35;;;;;;;8.48;90.14;102547.44;6186510;23;20017;-80
2023/04/09 05:18:22;;;;;;;35.28;21.00;;;;;;;8.48;90.13;102550.84;6187026;23;20029;-80
2023/04/09 05:20:49;;;;;;;34.22;20.27;;;;;;;8.47;90.19;102557.28;6187999;23;20041;-80
2023/04/09 05:23:16;;;;;;;36.17;20.50;;;;;;;8.46;90.26;102553.13;6162135;23;20423;-80
2023/04/09 05:25:50;;;;;;;33.10;20.52;;;;;;;8.46;90.22;102555.03;6189418;23;20088;-80
2023/04/09 05:28:24;;;;;;;34.50;20.58;;;;;;;8.45;90.23;102562.22;6188205;23;20028;-81
2023/04/09 05:31:02;;;;;;;34.45;19.48;;;;;;;8.46;90.03;102562.97;6187150;23;20024;-81
2023/04/09 05:33:36;;;;;;;30.40;19.90;;;;;;;8.45;90.01;102562.22;6187821;23;20096;-81
2023/04/09 05:36:07;;;;;;;32.25;20.23;;;;;;;8.46;89.87;102563.75;6186793;23;20021;-80
2023/04/09 05:38:34;;;;;;;33.55;20.70;;;;;;;8.47;89.84;102567.16;6188191;23;20028;-80
2023/04/09 05:41:00;;;;;;;32.03;20.33;;;;;;;8.47;90.04;102564.50;6194493;23;20057;-80
2023/04/09 05:43:27;;;;;;;33.38;21.20;;;;;;;8.48;89.89;102569.44;6163215;23;20057;-82
2023/04/09 05:45:54;;;;;;;39.58;20.85;;;;;;;8.47;89.96;102565.25;6189404;23;20415;-80
2023/04/09 05:48:21;;;;;;;33.97;21.75;;;;;;;8.49;89.45;102568.28;6187940;23;20022;-79
2023/04/09 05:50:53;;;;;;;38.60;21.75;;;;;;;8.48;89.62;102563.38;6188036;23;20803;-79
2023/04/09 05:53:23;;;;;;;39.00;22.85;;;;;;;8.48;89.10;102568.66;6188346;23;20108;-78
2023/04/09 05:55:50;;;;;;;37.45;22.15;;;;;;;8.45;88.79;102567.53;6189311;23;20022;-79
2023/04/09 05:58:20;;;;;;;45.55;24.20;;;;;;;8.46;88.55;102571.69;6188023;23;20460;-78
2023/04/09 06:00:47;;;;;;;44.88;25.70;;;;;;;8.48;88.62;102577.41;6163255;23;20028;-80
2023/04/09 06:03:14;;;;;;;41.53;23.35;;;;;;;8.49;88.89;102572.84;6186897;23;20026;-79
2023/04/09 06:05:40;;;;;;;38.15;23.95;;;;;;;8.50;88.72;102569.06;6188198;23;20018;-80
2023/04/09 06:08:07;;;;;;;38.33;24.38;;;;;;;8.51;88.71;102573.22;6187356;23;20026;-80
2023/04/09 06:10:33;;;;;;;44.63;24.52;;;;;;;8.51;88.92;102568.66;6187905;23;20084;-80
2023/04/09 06:13:00;;;;;;;40.17;24.35;;;;;;;8.52;88.38;102577.41;6188238;23;20113;-80
2023/04/09 06:15:27;;;;;;;40.60;25.05;;;;;;;8.52;88.33;102570.19;6190269;23;20053;-87
2023/04/09 06:17:54;;;;;;;38.35;22.65;;;;;;;8.52;87.90;102578.16;6187030;23;20045;-79
2023/04/09 06:20:22;;;;;;;47.75;24.33;;;;;;;8.53;86.82;102577.00;6189711;23;20092;-79
2023/04/09 06:22:49;;;;;;;39.78;22.67;;;;;;;8.53;86.78;102577.00;6189764;23;20310;-79
2023/04/09 06:25:15;;;;;;;38.85;23.50;;;;;;;8.55;86.30;102573.97;6189324;23;20037;-79
2023/04/09 06:27:42;;;;;;;42.10;23.65;;;;;;;8.57;86.09;102577.00;6190589;23;20054;-79
2023/04/09 06:30:09;;;;;;;39.53;23.35;;;;;;;8.60;86.12;102576.25;6189998;23;20022;-78
2023/04/09 06:32:35;;;;;;;41.13;23.52;;;;;;;8.65;86.18;102581.19;6189334;23;20045;-79
2023/04/09 06:35:19;;;;;;;36.47;22.67;;;;;;;8.69;86.28;102587.25;6188713;23;20351;-78
2023/04/09 06:37:45;;;;;;;34.17;21.20;;;;;;;8.75;86.77;102590.28;6189099;23;20021;-80
2023/04/09 06:40:13;;;;;;;31.50;21.08;;;;;;;8.77;86.72;102599.38;6188717;23;20085;-79
2023/04/09 06:42:39;;;;;;;33.30;21.52;;;;;;;8.79;86.55;102597.09;6190663;23;20032;-79
2023/04/09 06:45:16;;;;;;;34.60;20.33;;;;;;;8.82;87.14;102596.31;6188068;23;20084;-79
2023/04/09 06:47:43;;;;;;;32.75;20.98;;;;;;;8.85;87.04;102600.09;6189858;23;20044;-79
2023/04/09 06:50:09;;;;;;;31.85;19.88;;;;;;;8.90;87.04;102597.06;6189838;23;20018;-77
2023/04/09 06:52:36;;;;;;;32.35;20.23;;;;;;;8.94;87.42;102597.81;6190174;23;20372;-78
2023/04/09 06:55:03;;;;;;;28.92;19.27;;;;;;;9.00;87.27;102597.06;6189856;23;20021;-77
2023/04/09 06:57:29;;;;;;;32.10;19.83;;;;;;;9.05;87.74;102595.16;6190421;23;20010;-77
2023/04/09 06:59:56;;;;;;;32.35;19.55;;;;;;;9.08;87.43;102599.69;6191045;23;20029;-77
2023/04/09 07:02:22;;;;;;;29.58;19.83;;;;;;;9.09;87.19;102599.31;6189437;23;20013;-80
2023/04/09 07:04:49;;;;;;;30.95;20.05;;;;;;;9.09;86.24;102603.88;6190260;23;20290;-78
2023/04/09 07:07:15;;;;;;;31.42;20.30;;;;;;;9.07;85.08;102604.25;6189655;23;20013;-80
2023/04/09 07:09:42;;;;;;;29.30;19.08;;;;;;;9.16;84.97;102609.94;6188387;23;20463;-79
2023/04/09 07:12:08;;;;;;;30.73;18.67;;;;;;;9.25;84.30;102604.19;6189802;23;20403;-78
2023/04/09 07:14:35;;;;;;;27.60;19.52;;;;;;;9.35;84.10;102608.72;6192142;23;20021;-78
2023/04/09 07:17:01;;;;;;;28.60;18.27;;;;;;;9.43;82.87;102598.81;6189379;23;20101;-79
2023/04/09 07:19:28;;;;;;;30.88;19.65;;;;;;;9.57;82.76;102598.78;6190164;23;20022;-81
2023/04/09 07:21:54;;;;;;;26.83;17.92;;;;;;;9.73;82.22;102598.28;6188626;23;20025;-79
2023/04/09 07:24:21;;;;;;;28.15;18.63;;;;;;;9.88;81.82;102607.72;6189884;23;20025;-79
2023/04/09 07:26:49;;;;;;;32.85;19.27;;;;;;;9.96;81.70;102609.19;6189560;23;20056;-78
2023/04/09 07:29:19;;;;;;;27.33;18.45;;;;;;;10.03;80.68;102617.13;6190297;23;20021;-78
2023/04/09 07:31:45;;;;;;;29.60;19.60;;;;;;;10.08;80.28;102606.06;6189539;23;20081;-78
2023/04/09 07:34:12;;;;;;;31.92;19.23;;;;;;;10.27;79.85;102612.81;6189767;23;20452;-78
2023/04/09 07:36:39;;;;;;;26.23;18.10;;;;;;;10.38;78.06;102615.41;6189933;23;20018;-78
2023/04/09 07:39:06;;;;;;;24.42;17.50;;;;;;;10.50;76.55;102615.66;6188130;23;20422;-79
2023/04/09 07:41:32;;;;;;;26.58;18.20;;;;;;;10.61;75.13;102615.56;6189758;23;20072;-79
2023/04/09 07:44:02;;;;;;;24.20;17.48;;;;;;;10.77;74.32;102617.72;6187285;23;20039;-79
2023/04/09 07:46:28;;;;;;;32.00;18.00;;;;;;;10.86;73.01;102604.69;6188820;23;20045;-80
2023/04/09 07:48:55;;;;;;;28.95;17.88;;;;;;;10.95;73.12;102612.97;6189678;23;20021;-79
2023/04/09 07:51:21;;;;;;;29.63;18.52;;;;;;;11.09;72.45;102604.06;6189708;23;20530;-77
2023/04/09 07:53:48;;;;;;;24.90;17.70;;;;;;;11.25;72.61;102609.59;6189603;23;20017;-79
2023/04/09 07:56:15;;;;;;;24.73;17.98;;;;;;;11.28;71.37;102604.22;6189366;23;20045;-79
2023/04/09 07:58:41;;;;;;;24.90;18.73;;;;;;;11.34;71.18;102609.88;6190182;23;20455;-80
2023/04/09 08:01:08;;;;;;;24.88;17.52;;;;;;;11.26;70.14;102603.09;6188978;23;20459;-80
2023/04/09 08:03:35;;;;;;;24.85;18.10;;;;;;;11.25;70.39;102606.94;6189737;23;20045;-81
2023/04/09 08:06:02;;;;;;;30.73;18.88;;;;;;;11.26;69.93;102595.88;6189163;23;20479;-80
2023/04/09 08:08:29;;;;;;;27.77;18.33;;;;;;;11.47;70.15;102605.53;6189628;23;20089;-80
2023/04/09 08:10:56;;;;;;;25.17;18.08;;;;;;;11.68;70.13;102604.47;6189410;23;20017;-80
2023/04/09 08:13:24;;;;;;;27.48;18.73;;;;;;;11.88;68.65;102602.72;6189447;23;20023;-80
2023/04/09 08:15:51;;;;;;;24.30;17.45;;;;;;;11.93;68.16;102607.63;6189689;23;20057;-80
2023/04/09 08:18:17;;;;;;;23.92;18.58;;;;;;;12.10;68.11;102605.06;6189900;23;20028;-80
2023/04/09 08:20:44;;;;;;;26.55;19.02;;;;;;;12.11;68.33;102599.31;6189765;23;20093;-80
2023/04/09 08:23:11;;;;;;;27.52;19.90;;;;;;;11.99;68.65;102607.91;6189145;23;20073;-80
2023/04/09 08:25:37;;;;;;;27.27;19.85;;;;;;;11.89;68.60;102600.81;6189655;23;20014;-80
2023/04/09 08:28:05;;;;;;;25.58;19.55;;;;;;;11.77;67.97;102606.69;6188508;23;20017;-80
2023/04/09 08:30:33;;;;;;;25.90;19.17;;;;;;;11.92;68.87;102608.78;6188016;23;20422;-80
2023/04/09 08:33:00;;;;;;;27.67;20.33;;;;;;;12.12;67.69;102603.50;6189836;23;20092;-80
2023/04/09 08:35:29;;;;;;;29.58;19.23;;;;;;;12.16;67.81;102604.22;6188010;23;20072;-80
2023/04/09 08:37:55;;;;;;;30.75;21.08;;;;;;;12.38;67.63;102607.31;6187261;23;20045;-80
2023/04/09 08:40:22;;;;;;;29.45;20.65;;;;;;;12.59;66.63;102606.19;6187639;23;20021;-80
2023/04/09 08:42:55;;;;;;;29.50;20.15;;;;;;;12.77;66.14;102605.88;6188534;23;20455;-80
2023/04/09 08:45:22;;;;;;;28.40;20.40;;;;;;;12.77;65.36;102606.66;6189295;23;20068;-79
2023/04/09 08:47:50;;;;;;;27.13;20.65;;;;;;;13.05;65.63;102605.34;6189539;23;20065;-78
2023/04/09 08:50:17;;;;;;;32.97;20.80;;;;;;;13.23;64.23;102605.03;6187972;23;20404;-78
2023/04/09 08:52:46;;;;;;;32.92;19.98;;;;;;;13.41;63.82;102602.00;6187963;23;20018;-79
2023/04/09 08:55:13;;;;;;;27.05;20.95;;;;;;;13.65;64.06;102604.13;6189132;23;20052;-79
2023/04/09 08:57:40;;;;;;;32.08;20.75;;;;;;;13.71;63.01;102604.41;6188436;23;20456;-79
2023/04/09 09:00:07;;;;;;;29.55;21.17;;;;;;;13.55;63.76;102599.03;6188827;23;20392;-79
2023/04/09 09:02:34;;;;;;;32.20;22.10;;;;;;;13.39;63.22;102597.06;6189364;23;20013;-79
2023/04/09 09:05:01;;;;;;;30.42;21.73;;;;;;;13.52;63.72;102597.19;6189712;23;20483;-80
2023/04/09 09:07:28;;;;;;;32.03;22.30;;;;;;;13.93;63.00;102602.03;6189460;23;20028;-80
2023/04/09 09:09:58;;;;;;;27.73;21.83;;;;;;;14.04;61.75;102597.16;6189362;23;20088;-80
2023/04/09 09:12:40;;;;;;;28.27;22.27;;;;;;;14.09;61.76;102587.88;6187249;23;20020;-79
2023/04/09 09:15:28;;;;;;;32.58;23.23;;;;;;;14.15;62.18;102594.22;6188824;23;20439;-82
2023/04/09 09:17:59;;;;;;;35.80;25.40;;;;;;;13.99;61.96;102585.00;6189645;23;20021;-81
2023/04/09 09:20:26;;;;;;;30.90;24.50;;;;;;;13.87;62.39;102587.63;6189627;23;20013;-79
2023/04/09 09:22:54;;;;;;;32.28;25.88;;;;;;;13.86;63.10;102586.13;6188969;23;20089;-79
2023/04/09 09:25:24;;;;;;;34.60;24.15;;;;;;;13.98;62.02;102590.81;6188971;23;20013;-80
2023/04/09 09:27:53;;;;;;;32.10;24.48;;;;;;;13.97;61.55;102590.06;6188695;23;20018;-78
2023/04/09 09:30:22;;;;;;;32.83;24.90;;;;;;;14.10;62.04;102582.09;6188595;23;20017;-78
2023/04/09 09:32:53;;;;;;;30.92;25.23;;;;;;;14.20;61.65;102583.00;6190273;23;20465;-80
2023/04/09 09:35:20;;;;;;;;;;;;;;;14.20;62.99;102583.00;6189012;23;20017;-79
2023/04/09 09:37:47;;;;;;;33.42;24.42;;;;;;;14.03;61.53;102574.97;6189247;23;20360;-78
2023/04/09 09:40:27;;;;;;;31.02;23.75;;;;;;;14.05;61.76;102582.59;6188696;23;20029;-88
2023/04/09 09:42:55;;;;;;;30.25;23.70;;;;;;;13.88;62.22;102581.09;6188935;23;20440;-83
2023/04/09 09:45:23;;;;;;;30.50;24.42;;;;;;;14.13;61.39;102567.09;6187572;23;20019;-82
2023/04/09 09:47:51;;;;;;;32.60;23.55;;;;;;;14.19;61.65;102570.78;6190264;23;20116;-82
2023/04/09 09:50:22;;;;;;;29.40;22.38;;;;;;;14.43;60.59;102582.09;6189850;23;20406;-89
2023/04/09 09:52:52;;;;;;;29.55;22.40;;;;;;;14.41;60.84;102576.34;6189385;23;20436;-79
2023/04/09 09:55:21;;;;;;;29.10;22.30;;;;;;;14.66;60.23;102574.59;6186235;23;20093;-80
2023/04/09 09:57:50;;;;;;;30.05;22.23;;;;;;;14.68;60.35;102563.44;6188868;23;20024;-79
2023/04/09 10:00:17;;;;;;;31.67;23.15;;;;;;;14.66;59.98;102563.88;6188688;23;20021;-81
2023/04/09 10:02:55;;;;;;;32.08;22.98;;;;;;;14.67;60.40;102565.38;6164661;23;20014;-80
2023/04/09 10:05:25;;;;;;;28.60;22.10;;;;;;;14.84;60.23;102562.63;6189104;23;20021;-80
2023/04/09 10:07:54;;;;;;;26.60;22.38;;;;;;;15.05;59.35;102563.97;6188616;23;20400;-81
2023/04/09 10:10:22;;;;;;;25.50;22.00;;;;;;;15.24;58.76;102561.09;6189563;23;20021;-80
2023/04/09 10:12:50;;;;;;;27.20;22.13;;;;;;;15.38;58.15;102545.75;6190348;23;20041;-83
2023/04/09 10:15:18;;;;;;;28.67;21.83;;;;;;;15.52;57.26;102551.47;6189929;23;20117;-82
2023/04/09 10:17:45;;;;;;;27.00;21.00;;;;;;;15.70;57.70;102544.81;6213726;23;20018;-82
2023/04/09 10:20:37;;;;;;;25.23;20.90;;;;;;;15.96;56.78;102535.56;6192537;23;20013;-78
2023/04/09 10:23:10;;;;;;;26.33;19.95;;;;;;;15.76;55.94;102540.41;6189698;23;20010;-80
2023/04/09 10:25:37;;;;;;;25.52;20.52;;;;;;;15.41;56.70;102531.50;6189947;23;20699;-83
2023/04/09 10:28:15;;;;;;;24.35;19.65;;;;;;;15.58;57.26;102531.00;6189918;23;20076;-84
2023/04/09 10:30:42;;;;;;;23.67;19.58;;;;;;;15.78;55.77;102528.06;6188809;23;20053;-81
2023/04/09 10:33:13;;;;;;;25.65;19.75;;;;;;;15.80;56.11;102514.19;6189777;23;20332;-81
2023/04/09 10:35:41;;;;;;;24.80;20.20;;;;;;;15.97;55.84;102518.25;6192754;23;20372;-79
2023/04/09 10:38:08;;;;;;;22.98;18.80;;;;;;;16.13;54.63;102515.41;6189507;23;20459;-83
2023/04/09 10:40:41;;;;;;;25.77;19.35;;;;;;;16.04;54.99;102517.25;6189676;23;20018;-82
2023/04/09 10:43:09;;;;;;;24.58;19.58;;;;;;;15.65;55.83;102517.31;6189668;23;20017;-81
2023/04/09 10:45:40;;;;;;;21.33;18.80;;;;;;;15.67;56.35;102506.16;6189921;23;20422;-82
2023/04/09 10:48:12;;;;;;;25.65;19.55;;;;;;;15.78;55.66;102508.50;6188091;23;20028;-81
2023/04/09 10:50:43;;;;;;;24.70;19.92;;;;;;;15.76;55.55;102503.56;6192956;23;20754;-81
2023/04/09 10:53:23;;;;;;;28.15;19.48;;;;;;;15.97;56.46;102502.88;6189284;23;20020;-82
2023/04/09 10:55:52;;;;;;;21.75;18.63;;;;;;;16.03;55.40;102500.38;6188201;23;20035;-82
2023/04/09 10:58:18;;;;;;;23.75;18.15;;;;;;;16.29;55.27;102504.50;6189506;23;20068;-80
2023/04/09 11:00:48;;;;;;;24.58;18.60;;;;;;;16.45;54.51;102495.47;6190206;23;20470;-80
2023/04/09 11:03:29;;;;;;;22.02;19.00;;;;;;;16.77;53.37;102496.31;6187610;23;20018;-80
2023/04/09 11:06:08;;;;;;;20.23;17.00;;;;;;;16.55;52.39;102488.97;6189636;23;20033;-80
2023/04/09 11:08:36;;;;;;;21.85;16.83;;;;;;;16.31;51.95;102485.25;6192594;23;20358;-80
2023/04/09 11:11:03;;;;;;;20.27;16.33;;;;;;;16.13;53.33;102487.78;6189384;23;20391;-80
2023/04/09 11:13:31;;;;;;;18.08;14.52;;;;;;;15.92;52.25;102491.94;6189968;23;20010;-79
2023/04/09 11:15:59;;;;;;;17.08;15.27;;;;;;;16.08;52.28;102488.34;6189698;23;20084;-80
2023/04/09 11:18:28;;;;;;;20.30;15.38;;;;;;;16.29;52.45;102483.00;6189994;23;20018;-80
2023/04/09 11:20:56;;;;;;;15.85;13.88;;;;;;;16.38;51.31;102485.00;6189225;23;20423;-81
2023/04/09 11:23:24;;;;;;;17.38;13.65;;;;;;;15.99;51.43;102483.66;6189055;23;20014;-80